Time;durP1;ratioP1;P1;durP2;ratioP2;P2;SDS_P1;SDS_P2;PMS_P1;PMS_P2;Temp;Humidity;BMP_temperature;BMP_pressure;BME280_temperature;BME280_humidity;BME280_pressure;Samples;Min_cycle;Max_cycle;Signal;HPM_P1;HPM_P2
2021/10/17 00:02:18;;;;;;;9.45;6.00;;;;;;;16.43;47.66;95683.19;5083730;28;20027;-74
2021/10/17 00:04:43;;;;;;;8.40;6.22;;;;;;;16.43;47.62;95683.19;5086200;28;20024;-73
2021/10/17 00:07:10;;;;;;;7.35;5.50;;;;;;;16.42;47.58;95676.13;5085101;28;20036;-73
2021/10/17 00:09:37;;;;;;;8.45;6.20;;;;;;;16.42;47.67;95677.97;5067942;28;20024;-73
2021/10/17 00:12:04;;;;;;;8.45;5.78;;;;;;;16.42;47.88;95680.69;5070069;28;20028;-73
2021/10/17 00:14:30;;;;;;;7.82;5.65;;;;;;;16.42;47.69;95686.94;5087472;28;20024;-73
2021/10/17 00:16:55;;;;;;;7.38;5.63;;;;;;;16.42;47.67;95686.94;5088424;28;20024;-73
2021/10/17 00:19:21;;;;;;;7.53;5.70;;;;;;;16.42;47.70;95684.25;5087348;28;20451;-74
2021/10/17 00:21:46;;;;;;;7.40;5.70;;;;;;;16.42;47.68;95686.09;5089697;28;20029;-74
2021/10/17 00:24:11;;;;;;;7.53;5.20;;;;;;;16.42;47.63;95686.94;5088271;28;20028;-74
2021/10/17 00:26:39;;;;;;;7.45;5.57;;;;;;;16.40;47.88;95678.19;5071017;28;20028;-74
2021/10/17 00:29:04;;;;;;;6.68;5.45;;;;;;;16.42;47.73;95684.25;5070822;28;20039;-73
2021/10/17 00:31:30;;;;;;;7.95;5.00;;;;;;;16.43;47.67;95688.59;5087398;28;20024;-74
2021/10/17 00:33:55;;;;;;;6.00;5.03;;;;;;;16.42;47.72;95684.25;5070610;28;20032;-73
2021/10/17 00:36:21;;;;;;;7.72;5.38;;;;;;;16.41;47.77;95679.84;5087231;28;20028;-73
2021/10/17 00:38:46;;;;;;;7.03;5.38;;;;;;;16.43;47.52;95687.75;5071180;28;20028;-74
2021/10/17 00:41:12;;;;;;;6.25;5.03;;;;;;;16.42;47.75;95676.13;5070287;28;20464;-74
2021/10/17 00:43:37;;;;;;;7.80;5.40;;;;;;;16.41;47.62;95679.84;5070643;28;20028;-74
2021/10/17 00:46:03;;;;;;;7.47;5.28;;;;;;;16.42;47.67;95683.41;5070024;28;20028;-74
2021/10/17 00:48:28;;;;;;;6.80;5.00;;;;;;;16.42;47.69;95680.69;5087300;28;20024;-74
2021/10/17 00:50:53;;;;;;;7.15;4.90;;;;;;;16.42;47.68;95688.81;5087232;28;20027;-74
2021/10/17 00:53:20;;;;;;;6.55;5.15;;;;;;;16.42;47.77;95691.50;5086790;28;20020;-74
2021/10/17 00:55:46;;;;;;;6.18;5.20;;;;;;;16.42;47.79;95692.34;5070667;28;20047;-74
2021/10/17 00:58:15;;;;;;;6.85;5.20;;;;;;;16.41;47.80;95690.66;5086852;28;20024;-74
2021/10/17 01:00:40;;;;;;;7.30;5.70;;;;;;;16.42;47.63;95686.94;5086432;28;20268;-74
2021/10/17 01:03:06;;;;;;;6.60;5.13;;;;;;;16.42;47.57;95686.09;5052495;28;20066;-75
2021/10/17 01:05:31;;;;;;;6.95;5.30;;;;;;;16.42;47.59;95683.41;5068964;28;20028;-73
2021/10/17 01:07:57;;;;;;;7.68;5.47;;;;;;;16.40;47.77;95688.16;5086273;28;20032;-74
2021/10/17 01:10:22;;;;;;;8.45;5.40;;;;;;;16.41;47.76;95681.75;5086875;28;20476;-75
2021/10/17 01:12:48;;;;;;;6.28;4.75;;;;;;;16.40;47.68;95682.75;5086449;28;20043;-74
2021/10/17 01:15:13;;;;;;;6.93;5.07;;;;;;;16.42;47.76;95681.53;5086344;28;20066;-74
2021/10/17 01:17:39;;;;;;;6.80;5.18;;;;;;;16.41;47.71;95681.75;5068477;28;20028;-75
2021/10/17 01:20:06;;;;;;;6.88;5.00;;;;;;;16.41;47.61;95679.03;5086372;28;20024;-74
2021/10/17 01:22:31;;;;;;;7.10;5.30;;;;;;;16.42;47.59;95677.97;5068821;28;20516;-74
2021/10/17 01:24:57;;;;;;;7.22;5.40;;;;;;;16.40;47.69;95680.91;5069487;28;20044;-76
2021/10/17 01:27:22;;;;;;;6.85;5.35;;;;;;;16.41;47.78;95684.44;5088056;28;20027;-74
2021/10/17 01:29:48;;;;;;;6.63;5.10;;;;;;;16.41;47.77;95679.84;5087573;28;20027;-74
2021/10/17 01:32:13;;;;;;;6.63;5.25;;;;;;;16.39;47.69;95684.66;5052955;28;20047;-73
2021/10/17 01:34:39;;;;;;;7.35;5.13;;;;;;;16.40;47.67;95680.06;5069654;28;20501;-74
2021/10/17 01:37:04;;;;;;;6.95;5.35;;;;;;;16.40;47.67;95683.59;5086021;28;20035;-74
2021/10/17 01:39:29;;;;;;;6.18;4.82;;;;;;;16.38;47.69;95669.44;5070012;28;20061;-74
2021/10/17 01:41:55;;;;;;;7.57;5.38;;;;;;;16.39;47.81;95676.53;5068867;28;20024;-74
2021/10/17 01:44:31;;;;;;;7.80;5.35;;;;;;;16.38;47.77;95672.13;5068681;28;20028;-74
2021/10/17 01:46:57;;;;;;;7.47;5.20;;;;;;;16.39;47.92;95676.53;5069166;28;20031;-74
2021/10/17 01:49:22;;;;;;;6.10;5.00;;;;;;;16.40;47.90;95677.34;5052609;28;20074;-74
2021/10/17 01:51:48;;;;;;;6.85;5.30;;;;;;;16.40;47.67;95678.19;5069152;28;20368;-74
2021/10/17 01:54:13;;;;;;;6.60;5.18;;;;;;;16.40;47.74;95671.94;5085732;28;20024;-74
2021/10/17 01:56:39;;;;;;;6.65;5.10;;;;;;;16.39;47.71;95673.81;5086357;28;20227;-73
2021/10/17 01:59:04;;;;;;;7.43;5.20;;;;;;;16.40;47.75;95675.47;5085480;28;20024;-75
2021/10/17 02:01:30;;;;;;;6.13;4.95;;;;;;;16.41;47.77;95679.84;5086254;28;20607;-75
2021/10/17 02:03:56;;;;;;;6.93;5.38;;;;;;;16.39;47.65;95673.81;5068353;28;20078;-75
2021/10/17 02:06:22;;;;;;;6.43;5.38;;;;;;;16.40;47.79;95671.94;5052576;28;20074;-75
2021/10/17 02:08:47;;;;;;;7.03;5.10;;;;;;;16.39;47.65;95665.72;5085537;28;20406;-75
2021/10/17 02:11:13;;;;;;;6.97;5.30;;;;;;;16.40;47.75;95671.94;5085678;28;20483;-75
2021/10/17 02:13:39;;;;;;;7.85;5.18;;;;;;;16.41;47.94;95673.63;5086036;28;20588;-75
2021/10/17 02:16:04;;;;;;;6.65;5.30;;;;;;;16.40;47.73;95672.78;5068041;28;20482;-75
2021/10/17 02:18:30;;;;;;;6.68;5.22;;;;;;;16.39;47.68;95667.56;5087719;28;20031;-75
2021/10/17 02:20:55;;;;;;;6.70;5.47;;;;;;;16.39;47.57;95665.72;5084835;28;20036;-75
2021/10/17 02:23:21;;;;;;;7.85;5.55;;;;;;;16.40;47.76;95672.78;5085374;28;20059;-75
2021/10/17 02:25:46;;;;;;;6.97;5.50;;;;;;;16.39;47.78;95671.13;5085084;28;20102;-75
2021/10/17 02:28:11;;;;;;;6.47;5.18;;;;;;;16.42;47.77;95680.69;5085566;28;20031;-75
2021/10/17 02:30:37;;;;;;;5.97;4.93;;;;;;;16.40;47.71;95669.22;5068580;28;20038;-75
2021/10/17 02:33:02;;;;;;;7.00;5.55;;;;;;;16.42;47.55;95677.97;5084789;28;20031;-75
2021/10/17 02:35:28;;;;;;;7.75;5.53;;;;;;;16.42;47.62;95675.28;5086848;28;20024;-75
2021/10/17 02:37:53;;;;;;;7.78;5.80;;;;;;;16.41;47.70;95674.44;5086041;28;20028;-75
2021/10/17 02:40:19;;;;;;;6.30;5.05;;;;;;;16.41;47.60;95677.13;5085668;28;20031;-75
2021/10/17 02:42:44;;;;;;;7.07;5.68;;;;;;;16.40;47.75;95678.19;5084896;28;20024;-75
2021/10/17 02:45:09;;;;;;;7.20;5.60;;;;;;;16.41;47.73;95682.56;5068369;28;20043;-75
2021/10/17 02:47:35;;;;;;;7.13;5.68;;;;;;;16.41;47.71;95684.44;5068159;28;20020;-75
2021/10/17 02:50:00;;;;;;;6.50;5.35;;;;;;;16.41;47.68;95690.66;5084965;28;20028;-75
2021/10/17 02:52:26;;;;;;;6.60;5.15;;;;;;;16.41;47.69;95693.38;5085325;28;20027;-75
2021/10/17 02:54:51;;;;;;;6.28;5.15;;;;;;;16.40;47.81;95694.44;5067371;28;20035;-75
2021/10/17 02:57:17;;;;;;;7.22;5.40;;;;;;;16.40;47.76;95690.88;5086864;28;20024;-75
2021/10/17 02:59:42;;;;;;;6.82;5.78;;;;;;;16.40;47.75;95693.59;5084548;28;20513;-75
2021/10/17 03:02:08;;;;;;;6.47;5.10;;;;;;;16.40;47.77;95704.41;5068211;28;20433;-75
2021/10/17 03:04:33;;;;;;;6.97;5.32;;;;;;;16.39;47.81;95694.63;5085910;28;20414;-75
2021/10/17 03:06:58;;;;;;;8.43;5.47;;;;;;;16.40;47.78;95693.59;5084893;28;20077;-75
2021/10/17 03:09:24;;;;;;;6.90;5.60;;;;;;;16.39;47.54;95691.94;5086243;28;20020;-75
2021/10/17 03:11:49;;;;;;;6.95;5.50;;;;;;;16.39;47.53;95691.94;5086019;28;20028;-75
2021/10/17 03:14:15;;;;;;;7.78;5.72;;;;;;;16.39;47.76;95690.06;5084966;28;20036;-75
2021/10/17 03:16:45;;;;;;;7.80;6.20;;;;;;;16.39;47.84;95692.78;5067618;28;20028;-75
2021/10/17 03:19:11;;;;;;;7.40;5.63;;;;;;;16.40;47.75;95699.84;5069106;28;20020;-75
2021/10/17 03:21:36;;;;;;;7.10;5.85;;;;;;;16.40;47.80;95702.56;5084426;28;20048;-75
2021/10/17 03:24:02;;;;;;;7.80;5.53;;;;;;;16.40;47.82;95702.56;5084634;28;20032;-75
2021/10/17 03:26:28;;;;;;;8.10;5.82;;;;;;;16.40;47.63;95694.44;5067719;28;20081;-75
2021/10/17 03:28:53;;;;;;;8.48;5.90;;;;;;;16.40;47.46;95699.84;5084764;28;20031;-75
2021/10/17 03:31:19;;;;;;;7.32;5.55;;;;;;;16.41;47.67;95700.69;5084811;28;20024;-75
2021/10/17 03:33:44;;;;;;;8.23;5.93;;;;;;;16.40;47.73;95697.13;5084223;28;20020;-75
2021/10/17 03:36:09;;;;;;;8.13;6.15;;;;;;;16.41;47.77;95703.38;5084776;28;20036;-73
2021/10/17 03:38:35;;;;;;;9.02;6.30;;;;;;;16.42;47.76;95696.94;5067433;28;20032;-75
2021/10/17 03:41:00;;;;;;;7.75;5.80;;;;;;;16.40;47.64;95697.13;5084950;28;20578;-74
2021/10/17 03:43:26;;;;;;;7.63;5.40;;;;;;;16.40;47.70;95699.84;5084363;28;20035;-76
2021/10/17 03:45:51;;;;;;;8.73;6.10;;;;;;;16.40;47.74;95701.72;5085583;28;20020;-76
2021/10/17 03:48:17;;;;;;;7.70;6.22;;;;;;;16.41;47.69;95704.22;5058950;28;20028;-76
2021/10/17 03:50:42;;;;;;;8.25;6.00;;;;;;;16.41;47.61;95708.81;5088312;28;20089;-76
2021/10/17 03:53:08;;;;;;;7.18;5.55;;;;;;;16.39;47.74;95698.19;5071532;28;20557;-76
2021/10/17 03:55:33;;;;;;;7.93;6.05;;;;;;;16.41;47.63;95703.38;5087935;28;20024;-76
2021/10/17 03:57:59;;;;;;;7.60;6.00;;;;;;;16.42;47.67;95707.75;5088874;28;20039;-76
2021/10/17 04:00:24;;;;;;;7.03;5.78;;;;;;;16.40;47.70;95705.25;5088905;28;20028;-76
2021/10/17 04:02:50;;;;;;;7.97;6.38;;;;;;;16.41;47.75;95703.38;5071518;28;20099;-76
2021/10/17 04:05:15;;;;;;;9.15;5.97;;;;;;;16.41;47.76;95712.31;5070759;28;20438;-74
2021/10/17 04:07:41;;;;;;;7.15;5.65;;;;;;;16.40;47.54;95697.13;5089437;28;20024;-74
2021/10/17 04:10:07;;;;;;;7.05;5.85;;;;;;;16.42;48.00;95708.59;5088232;28;20028;-76
2021/10/17 04:12:32;;;;;;;7.70;6.00;;;;;;;16.41;47.57;95704.22;5087644;28;20103;-74
2021/10/17 04:14:58;;;;;;;7.72;6.28;;;;;;;16.41;47.62;95711.50;5071362;28;20036;-75
2021/10/17 04:17:23;;;;;;;7.80;6.35;;;;;;;16.41;47.88;95706.09;5087227;28;20109;-74
2021/10/17 04:19:49;;;;;;;7.93;6.18;;;;;;;16.42;47.67;95716.72;5089561;28;20148;-75
2021/10/17 04:22:15;;;;;;;8.57;6.57;;;;;;;16.41;47.70;95706.09;5086990;28;20114;-75
2021/10/17 04:24:40;;;;;;;7.85;6.55;;;;;;;16.37;47.77;95705.66;5071092;28;20036;-75
2021/10/17 04:27:08;;;;;;;8.65;6.72;;;;;;;16.38;47.99;95712.75;5089381;28;20032;-75
2021/10/17 04:29:35;;;;;;;8.32;6.38;;;;;;;16.38;47.68;95718.16;5089187;28;20051;-75
2021/10/17 04:32:00;;;;;;;8.13;6.50;;;;;;;16.38;47.99;95718.16;5071407;28;20035;-76
2021/10/17 04:34:25;;;;;;;10.15;6.85;;;;;;;16.39;47.81;95719.84;5086733;28;20032;-75
2021/10/17 04:36:51;;;;;;;8.25;6.57;;;;;;;16.39;47.82;95719.00;5089352;28;20024;-75
2021/10/17 04:39:16;;;;;;;8.02;6.47;;;;;;;16.39;47.77;95714.44;5070318;28;20383;-77
2021/10/17 04:41:42;;;;;;;9.57;6.75;;;;;;;16.40;47.81;95726.91;5070718;28;20455;-74
2021/10/17 04:44:07;;;;;;;7.93;5.97;;;;;;;16.39;47.72;95725.25;5070284;28;20047;-76
2021/10/17 04:46:33;;;;;;;7.80;6.28;;;;;;;16.40;47.65;95728.78;5070439;28;20547;-75
2021/10/17 04:48:58;;;;;;;7.80;6.10;;;;;;;16.39;47.95;95727.97;5087605;28;20081;-74
2021/10/17 04:51:23;;;;;;;7.50;6.18;;;;;;;16.40;47.71;95728.78;5070402;28;20020;-74
2021/10/17 04:53:49;;;;;;;7.65;6.22;;;;;;;16.42;47.95;95741.06;5087546;28;20020;-74
2021/10/17 04:56:14;;;;;;;8.68;6.60;;;;;;;16.42;47.71;95742.94;5086762;28;20023;-74
2021/10/17 04:58:40;;;;;;;8.20;6.22;;;;;;;16.42;47.73;95741.06;5088588;28;20306;-75
2021/10/17 05:01:08;;;;;;;7.60;6.28;;;;;;;16.41;47.62;95747.50;5069898;28;20406;-76
2021/10/17 05:03:33;;;;;;;9.73;6.70;;;;;;;16.42;47.71;95740.25;5070170;28;20506;-75
2021/10/17 05:05:59;;;;;;;9.18;6.57;;;;;;;16.42;47.66;95745.66;5086624;28;20016;-74
2021/10/17 05:08:24;;;;;;;8.35;6.88;;;;;;;16.42;47.70;95746.50;5086874;28;20020;-74
2021/10/17 05:10:49;;;;;;;7.55;6.30;;;;;;;16.43;47.85;95752.72;5086912;28;20031;-77
2021/10/17 05:13:15;;;;;;;9.15;6.70;;;;;;;16.43;47.67;95748.16;5086538;28;20028;-76
2021/10/17 05:15:40;;;;;;;8.25;6.43;;;;;;;16.43;47.62;95753.56;5067226;28;20204;-74
2021/10/17 05:18:06;;;;;;;8.90;7.07;;;;;;;16.42;47.83;95749.19;5072754;28;20021;-74
2021/10/17 05:20:32;;;;;;;9.48;6.82;;;;;;;16.44;47.81;95757.13;5083355;28;20568;-76
2021/10/17 05:22:57;;;;;;;8.75;6.63;;;;;;;16.43;47.43;95761.69;5067341;28;20120;-74
2021/10/17 05:25:23;;;;;;;8.32;6.72;;;;;;;16.43;47.58;95761.69;5066630;28;20024;-75
2021/10/17 05:27:48;;;;;;;7.78;6.45;;;;;;;16.45;47.59;95764.19;5066167;28;20082;-75
2021/10/17 05:30:14;;;;;;;8.70;6.57;;;;;;;16.46;47.80;95767.75;5066228;28;20029;-75
2021/10/17 05:32:39;;;;;;;7.75;6.22;;;;;;;16.47;47.73;95769.38;5067962;28;20530;-75
2021/10/17 05:35:05;;;;;;;8.32;6.80;;;;;;;16.46;47.62;95773.97;5065770;28;20052;-75
2021/10/17 05:37:30;;;;;;;7.47;6.68;;;;;;;16.46;47.56;95771.25;5049915;28;20031;-74
2021/10/17 05:39:55;;;;;;;9.13;6.85;;;;;;;16.47;47.66;95766.69;5066928;28;20040;-74
2021/10/17 05:42:21;;;;;;;9.73;7.10;;;;;;;16.47;47.52;95774.81;5083143;28;20035;-74
2021/10/17 05:44:46;;;;;;;9.45;6.65;;;;;;;16.46;47.59;95779.38;5066919;28;20475;-74
2021/10/17 05:47:12;;;;;;;9.88;7.70;;;;;;;16.47;47.43;95777.50;5067250;28;20035;-76
2021/10/17 05:49:38;;;;;;;9.75;7.43;;;;;;;16.47;47.65;95780.22;5085610;28;20056;-77
2021/10/17 05:52:04;;;;;;;10.52;7.05;;;;;;;16.48;47.56;95781.88;5068862;28;20080;-75
2021/10/17 05:54:29;;;;;;;9.52;7.07;;;;;;;16.49;47.45;95784.38;5081772;28;20082;-75
2021/10/17 05:56:55;;;;;;;8.82;7.20;;;;;;;16.49;47.67;95784.38;5084665;28;20032;-74
2021/10/17 05:59:20;;;;;;;8.45;6.40;;;;;;;16.49;47.57;95783.56;5066659;28;20468;-75
2021/10/17 06:01:46;;;;;;;9.10;7.30;;;;;;;16.50;47.49;95786.06;5066846;28;20024;-75
2021/10/17 06:04:11;;;;;;;7.70;6.40;;;;;;;16.50;47.50;95786.06;5086764;28;20028;-75
2021/10/17 06:06:41;;;;;;;11.23;7.82;;;;;;;16.51;47.76;95790.44;5082554;28;20035;-75
2021/10/17 06:09:07;;;;;;;10.93;8.57;;;;;;;16.53;47.42;95798.34;5068581;28;20100;-75
2021/10/17 06:11:32;;;;;;;10.13;7.80;;;;;;;16.55;47.45;95798.97;5067830;28;20436;-75
2021/10/17 06:13:58;;;;;;;14.27;8.90;;;;;;;16.54;47.46;95800.84;5084535;28;20318;-75
2021/10/17 06:16:23;;;;;;;12.98;9.60;;;;;;;16.57;47.35;95802.31;5066576;28;20542;-75
2021/10/17 06:18:48;;;;;;;11.93;9.70;;;;;;;16.56;47.52;95800.63;5065708;28;20039;-76
2021/10/17 06:21:14;;;;;;;14.02;11.18;;;;;;;16.56;47.38;95812.31;5068005;28;20024;-76
2021/10/17 06:23:39;;;;;;;14.73;11.23;;;;;;;16.55;47.52;95805.25;5082834;28;20048;-76
2021/10/17 06:26:05;;;;;;;14.30;11.20;;;;;;;16.57;47.40;95802.31;5082372;28;20024;-76
2021/10/17 06:28:30;;;;;;;15.20;12.05;;;;;;;16.58;47.17;95809.41;5064889;28;20082;-77
2021/10/17 06:30:56;;;;;;;16.70;12.65;;;;;;;16.59;47.17;95808.34;5050962;28;20513;-75
2021/10/17 06:33:21;;;;;;;17.83;13.00;;;;;;;16.61;47.41;95808.97;5085280;28;20474;-75
2021/10/17 06:35:46;;;;;;;15.95;12.55;;;;;;;16.61;47.22;95808.13;5083111;28;20024;-75
2021/10/17 06:38:12;;;;;;;18.73;14.15;;;;;;;16.61;47.50;95811.69;5067855;28;20036;-80
2021/10/17 06:40:37;;;;;;;20.02;14.45;;;;;;;16.62;47.25;95805.22;5084488;28;20035;-80
2021/10/17 06:43:03;;;;;;;21.02;14.63;;;;;;;16.63;47.26;95811.47;5067971;28;20028;-80
2021/10/17 06:45:29;;;;;;;20.15;14.90;;;;;;;16.64;47.13;95813.97;5062901;28;20665;-81
2021/10/17 06:47:54;;;;;;;20.48;14.05;;;;;;;16.65;47.50;95815.63;5050677;28;20028;-80
2021/10/17 06:50:21;;;;;;;21.67;15.32;;;;;;;16.67;47.44;95812.72;5076283;28;20047;-80
2021/10/17 06:52:50;;;;;;;19.65;14.77;;;;;;;16.66;47.61;95814.63;5070675;28;20032;-79
2021/10/17 06:55:15;;;;;;;20.25;14.57;;;;;;;16.68;47.42;95819.84;5065816;28;20398;-81
2021/10/17 06:57:41;;;;;;;23.25;14.55;;;;;;;16.67;47.47;95823.56;5041491;28;20035;-83
2021/10/17 07:00:07;;;;;;;20.00;14.10;;;;;;;16.68;47.54;95826.06;5064698;28;20025;-80
2021/10/17 07:02:33;;;;;;;22.13;14.50;;;;;;;16.69;47.56;95824.19;5067605;28;20024;-80
2021/10/17 07:04:58;;;;;;;20.92;14.50;;;;;;;16.70;47.49;95822.34;5080367;28;20040;-81
2021/10/17 07:07:24;;;;;;;19.90;14.77;;;;;;;16.68;47.80;95819.84;5075074;28;20032;-80
2021/10/17 07:09:49;;;;;;;18.30;13.90;;;;;;;16.69;47.80;95824.19;5084308;28;20028;-81
2021/10/17 07:12:15;;;;;;;17.75;12.90;;;;;;;16.72;47.83;95825.69;5061569;28;20028;-81
2021/10/17 07:14:40;;;;;;;18.73;13.38;;;;;;;16.73;47.76;95822.75;5082053;28;20054;-83
2021/10/17 07:17:06;;;;;;;20.38;13.90;;;;;;;16.74;47.59;95829.84;5067585;28;20486;-82
2021/10/17 07:19:31;;;;;;;18.85;13.32;;;;;;;16.76;47.83;95826.91;5050476;28;20461;-82
2021/10/17 07:21:57;;;;;;;18.77;13.68;;;;;;;16.77;47.64;95825.88;5053810;28;20028;-79
2021/10/17 07:24:22;;;;;;;21.27;13.43;;;;;;;16.80;47.67;95829.00;5071013;28;20073;-81
2021/10/17 07:26:48;;;;;;;23.10;13.77;;;;;;;16.81;47.57;95840.69;5066006;28;20402;-81
2021/10/17 07:29:13;;;;;;;19.80;13.27;;;;;;;16.81;47.70;95836.06;5068236;28;20399;-80
2021/10/17 07:31:39;;;;;;;16.48;12.40;;;;;;;16.82;47.68;95834.22;5067864;28;20024;-81
2021/10/17 07:34:04;;;;;;;18.25;12.93;;;;;;;16.82;47.27;95842.34;5056711;28;20036;-81
2021/10/17 07:36:29;;;;;;;18.48;12.38;;;;;;;16.82;47.24;95839.63;5032788;28;20407;-78
2021/10/17 07:38:55;;;;;;;18.05;12.55;;;;;;;16.84;47.52;95842.97;5066142;28;20032;-81
2021/10/17 07:41:21;;;;;;;16.75;12.45;;;;;;;16.85;47.55;95841.09;5066770;28;20032;-80
2021/10/17 07:43:46;;;;;;;20.17;14.30;;;;;;;16.89;47.54;95842.34;5033706;28;20024;-80
2021/10/17 07:46:12;;;;;;;24.98;14.70;;;;;;;16.92;47.43;95837.38;5033037;28;20025;-80
2021/10/17 07:48:41;;;;;;;25.35;16.52;;;;;;;16.98;47.18;95840.25;5032793;28;20024;-81
2021/10/17 07:51:06;;;;;;;22.90;16.38;;;;;;;17.02;47.21;95845.06;5035015;28;20036;-81
2021/10/17 07:53:32;;;;;;;27.13;17.15;;;;;;;17.04;47.19;95842.97;5033383;28;20016;-81
2021/10/17 07:55:57;;;;;;;24.63;17.60;;;;;;;17.04;47.04;95845.69;5051038;28;20028;-81
2021/10/17 07:58:23;;;;;;;29.02;19.15;;;;;;;17.02;47.02;95841.53;5033720;28;20029;-82
2021/10/17 08:00:48;;;;;;;27.65;18.98;;;;;;;17.01;47.21;95843.41;5050741;28;20032;-81
2021/10/17 08:03:14;;;;;;;31.13;20.70;;;;;;;17.00;47.29;95839.03;5050033;28;20035;-81
2021/10/17 08:05:39;;;;;;;26.80;19.48;;;;;;;17.00;47.06;95843.59;5033563;28;20506;-83
2021/10/17 08:08:05;;;;;;;27.17;19.80;;;;;;;17.02;47.10;95842.34;5050947;28;20078;-83
2021/10/17 08:10:30;;;;;;;29.25;18.90;;;;;;;17.05;46.80;95841.13;5049717;28;20032;-82
2021/10/17 08:12:56;;;;;;;28.77;20.13;;;;;;;17.07;47.02;95839.03;5050686;28;20032;-82
2021/10/17 08:15:24;;;;;;;29.52;20.52;;;;;;;17.14;47.11;95833.63;5049753;28;20044;-82
2021/10/17 08:17:50;;;;;;;30.17;20.08;;;;;;;17.18;47.05;95838.41;5068754;28;20021;-81
2021/10/17 08:20:15;;;;;;;33.22;20.48;;;;;;;17.21;46.85;95844.47;5050183;28;20457;-82
2021/10/17 08:22:41;;;;;;;30.92;20.73;;;;;;;17.26;46.76;95839.25;5050431;28;20064;-82
2021/10/17 08:25:06;;;;;;;28.13;19.92;;;;;;;17.33;46.75;95841.97;5033601;28;20090;-82
2021/10/17 08:27:32;;;;;;;26.15;19.58;;;;;;;17.35;46.42;95835.28;5033742;28;20111;-82
2021/10/17 08:29:58;;;;;;;26.73;19.33;;;;;;;17.35;46.32;95834.44;5051197;28;20474;-81
2021/10/17 08:32:23;;;;;;;29.10;19.70;;;;;;;17.37;46.73;95835.06;5033031;28;20032;-82
2021/10/17 08:34:49;;;;;;;29.63;20.33;;;;;;;17.41;46.15;95833.63;5069099;28;20521;-81
2021/10/17 08:37:14;;;;;;;24.85;18.35;;;;;;;17.46;46.27;95841.13;5068013;28;20794;-82
2021/10/17 08:39:40;;;;;;;28.55;19.80;;;;;;;17.48;46.33;95839.00;5051465;28;20025;-84
2021/10/17 08:42:05;;;;;;;26.30;18.38;;;;;;;17.56;46.12;95838.81;5049496;28;20074;-82
2021/10/17 08:44:30;;;;;;;28.50;18.92;;;;;;;17.59;46.17;95840.28;5070525;28;20032;-81
2021/10/17 08:46:56;;;;;;;27.33;18.58;;;;;;;17.58;45.96;95834.00;5070196;28;20035;-82
2021/10/17 08:49:21;;;;;;;28.80;17.92;;;;;;;17.58;46.39;95831.28;5061050;28;20039;-83
2021/10/17 08:51:47;;;;;;;30.02;17.95;;;;;;;17.57;47.07;95835.06;5052205;28;20028;-84
2021/10/17 08:54:12;;;;;;;29.92;18.30;;;;;;;17.56;46.98;95833.38;5055161;28;20107;-74
2021/10/17 08:56:37;;;;;;;26.63;17.98;;;;;;;17.59;47.49;95835.66;5067142;28;20483;-73
2021/10/17 08:59:03;;;;;;;27.95;17.63;;;;;;;17.64;47.02;95835.88;5049758;28;20035;-73
2021/10/17 09:01:33;;;;;;;28.00;17.80;;;;;;;17.75;46.63;95837.09;5086967;28;20474;-74
2021/10/17 09:03:59;;;;;;;23.17;15.60;;;;;;;17.76;46.71;95836.06;5065669;28;20034;-72
2021/10/17 09:06:27;;;;;;;27.27;17.08;;;;;;;17.81;46.74;95837.28;5086504;28;20375;-71
2021/10/17 09:09:08;;;;;;;24.40;16.13;;;;;;;17.82;46.73;95847.94;5053993;28;20074;-72
2021/10/17 09:11:36;;;;;;;22.45;14.73;;;;;;;17.80;46.93;95839.16;5074187;28;20119;-73
2021/10/17 09:14:05;;;;;;;23.23;14.88;;;;;;;17.76;46.75;95835.22;5079887;28;20028;-72
2021/10/17 09:16:41;;;;;;;25.73;15.15;;;;;;;17.73;46.87;95835.66;5057876;28;20023;-74
2021/10/17 09:19:13;;;;;;;20.92;14.60;;;;;;;17.71;46.92;95837.72;5068428;28;20048;-74
2021/10/17 09:22:10;;;;;;;24.10;14.52;;;;;;;17.65;47.34;95839.44;5086625;28;20024;-74
2021/10/17 09:24:41;;;;;;;19.30;13.18;;;;;;;17.59;47.47;95830.25;5071427;28;20526;-73
2021/10/17 09:27:11;;;;;;;25.25;13.85;;;;;;;17.54;47.58;95832.75;5084488;28;20507;-72
2021/10/17 09:29:37;;;;;;;22.42;13.68;;;;;;;17.51;47.66;95834.00;5048632;28;20047;-73
2021/10/17 09:32:11;;;;;;;20.35;13.95;;;;;;;17.49;47.83;95829.84;5065812;28;20016;-73
2021/10/17 09:34:37;;;;;;;23.58;12.63;;;;;;;17.54;47.77;95827.31;5059651;28;20517;-73
2021/10/17 09:37:21;;;;;;;19.48;12.68;;;;;;;17.64;47.41;95819.59;5074829;28;20024;-74
2021/10/17 09:39:51;;;;;;;20.95;12.48;;;;;;;17.75;47.33;95822.72;5041876;28;20024;-72
2021/10/17 09:42:21;;;;;;;19.80;12.68;;;;;;;17.84;47.09;95831.44;5073391;28;20435;-72
2021/10/17 09:44:46;;;;;;;19.83;11.60;;;;;;;17.95;46.97;95817.22;5072405;28;20024;-72
2021/10/17 09:47:12;;;;;;;18.70;12.50;;;;;;;18.06;46.88;95814.84;5066825;28;20042;-72
2021/10/17 09:49:37;;;;;;;16.13;10.90;;;;;;;18.16;46.72;95829.69;5078271;28;20020;-72
2021/10/17 09:52:09;;;;;;;20.88;11.25;;;;;;;18.34;46.26;95824.59;5062755;28;20413;-72
2021/10/17 09:54:36;;;;;;;19.30;11.43;;;;;;;18.34;46.13;95821.88;5075590;28;20043;-71
2021/10/17 09:57:06;;;;;;;21.27;11.13;;;;;;;18.35;46.35;95815.38;5064325;28;20123;-73
2021/10/17 09:59:31;;;;;;;18.42;10.38;;;;;;;18.38;46.10;95815.78;5076946;28;20548;-73
2021/10/17 10:01:57;;;;;;;14.95;10.45;;;;;;;18.47;46.27;95820.97;5063404;28;20119;-70
2021/10/17 10:04:22;;;;;;;16.58;10.52;;;;;;;18.56;46.00;95818.81;5085376;28;20046;-72
2021/10/17 10:06:47;;;;;;;15.82;11.18;;;;;;;18.52;45.69;95816.53;5077793;28;20406;-71
2021/10/17 10:09:13;;;;;;;15.23;9.93;;;;;;;18.55;45.66;95812.56;5081461;28;20409;-71
2021/10/17 10:11:38;;;;;;;21.98;10.23;;;;;;;18.55;45.37;95815.28;5066228;28;20074;-71
2021/10/17 10:14:05;;;;;;;16.17;10.80;;;;;;;18.61;45.54;95808.97;5067611;28;20028;-72
2021/10/17 10:16:31;;;;;;;22.13;10.52;;;;;;;18.70;45.66;95804.09;5084100;28;20053;-72
2021/10/17 10:18:58;;;;;;;16.25;10.45;;;;;;;18.82;45.18;95804.22;5083567;28;20107;-72
2021/10/17 10:21:24;;;;;;;16.50;10.32;;;;;;;18.81;45.17;95802.59;5066801;28;20036;-72
2021/10/17 10:23:51;;;;;;;17.83;9.85;;;;;;;18.80;45.41;95797.38;5081690;28;20539;-73
2021/10/17 10:26:19;;;;;;;15.73;10.20;;;;;;;18.70;45.20;95801.38;5066844;28;20547;-73
2021/10/17 10:28:44;;;;;;;19.65;9.68;;;;;;;18.83;45.26;95796.94;5067727;28;20024;-75
2021/10/17 10:31:50;;;;;;;13.63;8.65;;;;;;;19.04;44.60;95790.25;5081635;28;20077;-74
2021/10/17 10:34:22;;;;;;;14.63;8.68;;;;;;;19.10;44.46;95781.22;5061871;28;20119;-73
2021/10/17 10:36:50;;;;;;;14.88;9.40;;;;;;;19.27;44.14;95783.41;5064775;28;20025;-73
2021/10/17 10:39:21;;;;;;;14.80;8.75;;;;;;;19.43;43.48;95779.28;5064998;28;20426;-74
2021/10/17 10:41:47;;;;;;;13.63;9.07;;;;;;;19.66;43.55;95771.50;5064069;28;20035;-73
2021/10/17 10:44:21;;;;;;;13.80;8.27;;;;;;;20.05;42.68;95769.41;5065627;28;20025;-71
2021/10/17 10:46:48;;;;;;;13.00;8.20;;;;;;;20.59;41.37;95776.81;5064744;28;20101;-74
2021/10/17 10:49:42;;;;;;;15.35;8.50;;;;;;;20.62;41.11;95770.06;5065039;28;20492;-73
2021/10/17 10:52:09;;;;;;;10.95;7.88;;;;;;;21.11;40.22;95772.69;5065892;28;20505;-73
2021/10/17 10:54:34;;;;;;;11.23;8.20;;;;;;;21.43;39.43;95768.75;5064385;28;20549;-73
2021/10/17 10:57:00;;;;;;;12.63;8.20;;;;;;;21.53;39.32;95768.16;5065066;28;20028;-73
2021/10/17 10:59:30;;;;;;;13.57;7.97;;;;;;;21.35;39.59;95761.78;5064038;28;20035;-73
2021/10/17 11:02:07;;;;;;;15.30;8.70;;;;;;;20.86;40.37;95765.50;5065093;28;20032;-73
2021/10/17 11:04:41;;;;;;;11.13;7.88;;;;;;;20.47;40.89;95765.88;5065664;28;20028;-73
2021/10/17 11:07:22;;;;;;;12.95;8.07;;;;;;;20.33;41.24;95759.78;5066222;28;20123;-73
2021/10/17 11:09:48;;;;;;;13.00;7.22;;;;;;;20.18;41.48;95762.09;5064905;28;20513;-74
2021/10/17 11:12:39;;;;;;;12.23;8.13;;;;;;;19.83;41.85;95758.94;5047541;28;20108;-73
2021/10/17 11:15:05;;;;;;;9.38;7.00;;;;;;;19.56;42.79;95763.84;5064639;28;20131;-73
2021/10/17 11:17:30;;;;;;;10.88;7.30;;;;;;;19.34;43.26;95758.88;5064413;28;20380;-73
2021/10/17 11:19:56;;;;;;;11.20;7.50;;;;;;;19.18;43.80;95754.84;5065030;28;20467;-74
2021/10/17 11:22:22;;;;;;;10.23;7.60;;;;;;;19.06;43.88;95750.09;5063967;28;20442;-73
2021/10/17 11:24:51;;;;;;;9.50;6.75;;;;;;;19.02;44.00;95752.44;5064197;28;20041;-73